Time;durP1;ratioP1;P1;durP2;ratioP2;P2;SDS_P1;SDS_P2;PMS_P1;PMS_P2;Temp;Humidity;BMP_temperature;BMP_pressure;BME280_temperature;BME280_humidity;BME280_pressure;Samples;Min_cycle;Max_cycle;Signal;HPM_P1;HPM_P2
2022/06/30 00:00:05;;;;;;;;;;;21.60;79.60;;;;;;6089541;23;20004;-80
2022/06/30 00:02:37;;;;;;;;;;;21.60;80.60;;;;;;6066640;23;19925;-80
2022/06/30 00:05:04;;;;;;;;;;;21.60;79.90;;;;;;6090761;23;19921;-80
2022/06/30 00:07:31;;;;;;;;;;;21.50;81.80;;;;;;6090472;23;19922;-80
2022/06/30 00:09:57;;;;;;;;;;;21.50;80.70;;;;;;6091671;23;19922;-80
2022/06/30 00:12:24;;;;;;;;;;;21.50;80.50;;;;;;6066869;23;20304;-80
2022/06/30 00:14:51;;;;;;;;;;;21.50;81.20;;;;;;6091163;23;19945;-80
2022/06/30 00:17:18;;;;;;;;;;;21.50;80.40;;;;;;6090527;23;20320;-80
2022/06/30 00:19:45;;;;;;;;;;;21.50;80.00;;;;;;6091292;23;20173;-80
2022/06/30 00:22:12;;;;;;;;;;;21.50;80.30;;;;;;6091520;23;19925;-80
2022/06/30 00:24:39;;;;;;;;;;;21.50;80.70;;;;;;6090948;23;20343;-80
2022/06/30 00:27:07;;;;;;;;;;;21.40;81.10;;;;;;6091427;23;19921;-80
2022/06/30 00:29:33;;;;;;;;;;;21.40;81.50;;;;;;6090457;23;19921;-80
2022/06/30 00:32:00;;;;;;;;;;;21.40;81.80;;;;;;6091667;23;19969;-80
2022/06/30 00:34:27;;;;;;;;;;;21.40;82.20;;;;;;6090557;23;19942;-80
2022/06/30 00:36:55;;;;;;;;;;;21.40;81.90;;;;;;6091278;23;19973;-80
2022/06/30 00:39:22;;;;;;;;;;;21.30;81.70;;;;;;6090447;23;19969;-80
2022/06/30 00:41:49;;;;;;;;;;;21.30;81.70;;;;;;6068557;23;19922;-80
2022/06/30 00:44:16;;;;;;;;;;;21.30;81.70;;;;;;6090541;23;19957;-80
2022/06/30 00:46:43;;;;;;;;;;;21.30;81.70;;;;;;6109013;23;19924;-80
2022/06/30 00:49:10;;;;;;;;;;;21.30;81.70;;;;;;6114680;23;20302;-80
2022/06/30 00:51:37;;;;;;;;;;;21.30;81.70;;;;;;6099468;23;19925;-80
2022/06/30 00:54:06;;;;;;;;;;;21.30;81.80;;;;;;6115659;23;19921;-80
2022/06/30 00:56:33;;;;;;;;;;;21.30;82.00;;;;;;6098320;23;19924;-80
2022/06/30 00:59:04;;;;;;;;;;;21.30;81.90;;;;;;6116848;23;19926;-80
2022/06/30 01:01:32;;;;;;;;;;;21.30;82.20;;;;;;6097842;23;19921;-80
2022/06/30 01:04:00;;;;;;;;;;;21.30;82.60;;;;;;6100651;23;20386;-79
2022/06/30 01:06:28;;;;;;;;;;;21.20;82.60;;;;;;6111872;23;19976;-79
2022/06/30 01:08:55;;;;;;;;;;;21.20;82.50;;;;;;6126108;23;19925;-80
2022/06/30 01:14:07;;;;;;;;;;;21.20;82.50;;;;;;6125913;23;19948;-79
2022/06/30 01:16:37;;;;;;;;;;;21.10;82.50;;;;;;6124256;23;19924;-78
2022/06/30 01:19:04;;;;;;;;;;;21.00;82.40;;;;;;6100853;23;19921;-79
2022/06/30 01:21:30;;;;;;;;;;;21.00;82.50;;;;;;6097213;23;19925;-79
2022/06/30 01:23:58;;;;;;;;;;;21.00;82.50;;;;;;6071508;23;19925;-79
2022/06/30 01:26:27;;;;;;;;;;;20.90;82.80;;;;;;6094890;23;19925;-79
2022/06/30 01:28:54;;;;;;;;;;;20.70;82.70;;;;;;6096496;23;19925;-79
2022/06/30 01:31:23;;;;;;;;;;;20.70;83.20;;;;;;6096532;23;19922;-79
2022/06/30 01:33:50;;;;;;;;;;;20.60;83.50;;;;;;6123592;23;19924;-79
2022/06/30 01:36:17;;;;;;;;;;;20.60;83.90;;;;;;6114356;23;19921;-79
2022/06/30 01:38:43;;;;;;;;;;;20.50;84.20;;;;;;6097916;23;19932;-80
2022/06/30 01:41:10;;;;;;;;;;;20.50;84.10;;;;;;6115755;23;19921;-79
2022/06/30 01:43:37;;;;;;;;;;;20.50;83.90;;;;;;6096574;23;19921;-81
2022/06/30 01:46:04;;;;;;;;;;;20.50;84.00;;;;;;6116952;23;19961;-79
2022/06/30 01:48:30;;;;;;;;;;;20.50;84.20;;;;;;6095320;23;19921;-79
2022/06/30 01:50:57;;;;;;;;;;;20.50;84.20;;;;;;6125046;23;19925;-78
2022/06/30 01:53:24;;;;;;;;;;;20.50;84.40;;;;;;6100288;23;20305;-80
2022/06/30 01:55:51;;;;;;;;;;;20.60;84.50;;;;;;6111449;23;20298;-78
2022/06/30 01:58:17;;;;;;;;;;;20.50;84.80;;;;;;6114121;23;19921;-80
2022/06/30 02:00:44;;;;;;;;;;;20.50;84.40;;;;;;6097239;23;19932;-79
2022/06/30 02:03:11;;;;;;;;;;;20.50;84.60;;;;;;6126197;23;19921;-79
2022/06/30 02:05:38;;;;;;;;;;;20.50;84.60;;;;;;6110720;23;20341;-79
2022/06/30 02:08:05;;;;;;;;;;;20.40;84.60;;;;;;6116656;23;19972;-79
2022/06/30 02:10:32;;;;;;;;;;;20.30;84.60;;;;;;6120092;23;20018;-79
2022/06/30 02:12:58;;;;;;;;;;;20.40;85.10;;;;;;6118065;23;19921;-79
2022/06/30 02:15:33;;;;;;;;;;;20.30;85.80;;;;;;6094405;23;19968;-79
2022/06/30 02:18:01;;;;;;;;;;;20.30;86.80;;;;;;6111102;23;19921;-79
2022/06/30 02:20:28;;;;;;;;;;;20.20;86.30;;;;;;6099179;23;19921;-79
2022/06/30 02:22:56;;;;;;;;;;;20.30;86.50;;;;;;6095388;23;19977;-79
2022/06/30 02:25:24;;;;;;;;;;;20.30;86.80;;;;;;6095042;23;19925;-79
2022/06/30 02:27:51;;;;;;;;;;;20.30;86.60;;;;;;6095271;23;20231;-79
2022/06/30 02:30:18;;;;;;;;;;;20.30;86.60;;;;;;6095823;23;19977;-78
2022/06/30 02:32:45;;;;;;;;;;;20.30;86.40;;;;;;6095051;23;20227;-79
2022/06/30 02:35:12;;;;;;;;;;;20.40;86.10;;;;;;6095758;23;19929;-78
2022/06/30 02:37:39;;;;;;;;;;;20.40;85.70;;;;;;6093829;23;19972;-79
2022/06/30 02:40:07;;;;;;;;;;;20.40;85.90;;;;;;6095666;23;19973;-79
2022/06/30 02:42:34;;;;;;;;;;;20.40;86.10;;;;;;6094543;23;19929;-79
2022/06/30 02:45:01;;;;;;;;;;;20.40;86.30;;;;;;6069929;23;19925;-79
2022/06/30 02:47:32;;;;;;;;;;;20.40;86.70;;;;;;6094618;23;19953;-79
2022/06/30 02:49:59;;;;;;;;;;;20.40;86.90;;;;;;6069619;23;19921;-80
2022/06/30 02:52:26;;;;;;;;;;;20.40;86.80;;;;;;6094449;23;19921;-79
2022/06/30 02:54:53;;;;;;;;;;;20.50;86.70;;;;;;6093503;23;20394;-79
2022/06/30 02:57:19;;;;;;;;;;;20.50;86.30;;;;;;6070636;23;19925;-80
2022/06/30 02:59:46;;;;;;;;;;;20.50;86.20;;;;;;6095002;23;19921;-79
2022/06/30 03:02:13;;;;;;;;;;;20.50;86.10;;;;;;6070572;23;19929;-79
2022/06/30 03:04:40;;;;;;;;;;;20.40;86.30;;;;;;6094859;23;20000;-79
2022/06/30 03:07:07;;;;;;;;;;;20.40;86.40;;;;;;6094177;23;19922;-79
2022/06/30 03:09:35;;;;;;;;;;;20.40;86.30;;;;;;6095454;23;20262;-80
2022/06/30 03:12:02;;;;;;;;;;;20.40;86.30;;;;;;6094883;23;19949;-80
2022/06/30 03:14:33;;;;;;;;;;;20.40;86.60;;;;;;6094036;23;19925;-80
2022/06/30 03:17:00;;;;;;;;;;;20.40;87.30;;;;;;6093340;23;19925;-80
2022/06/30 03:19:27;;;;;;;;;;;20.30;86.60;;;;;;6094529;23;19977;-79
2022/06/30 03:21:54;;;;;;;;;;;20.30;86.70;;;;;;6093698;23;19930;-80
2022/06/30 03:24:21;;;;;;;;;;;20.30;86.50;;;;;;6095311;23;20040;-79
2022/06/30 03:26:49;;;;;;;;;;;20.20;86.30;;;;;;6069992;23;19927;-80
2022/06/30 03:29:16;;;;;;;;;;;20.20;86.00;;;;;;6094541;23;19921;-79
2022/06/30 03:31:42;;;;;;;;;;;20.20;86.20;;;;;;6093338;23;19929;-80
2022/06/30 03:34:10;;;;;;;;;;;20.30;87.10;;;;;;6095212;23;19925;-80
2022/06/30 03:36:36;;;;;;;;;;;20.20;86.80;;;;;;6094580;23;20250;-79
2022/06/30 03:39:04;;;;;;;;;;;20.20;87.30;;;;;;6094001;23;20405;-80
2022/06/30 03:41:31;;;;;;;;;;;20.30;87.00;;;;;;6096648;23;19990;-80
2022/06/30 03:43:57;;;;;;;;;;;20.30;86.60;;;;;;6095226;23;20259;-79
2022/06/30 03:46:24;;;;;;;;;;;20.30;86.60;;;;;;6095911;23;19929;-79
2022/06/30 03:48:51;;;;;;;;;;;20.30;86.60;;;;;;6071789;23;19921;-79
2022/06/30 03:51:18;;;;;;;;;;;20.20;86.60;;;;;;6071852;23;20019;-80
2022/06/30 03:53:45;;;;;;;;;;;20.20;86.70;;;;;;6096681;23;19933;-80
2022/06/30 03:56:11;;;;;;;;;;;20.20;86.70;;;;;;6072144;23;19922;-79
2022/06/30 03:58:38;;;;;;;;;;;20.20;86.60;;;;;;6072363;23;19925;-79
2022/06/30 04:01:05;;;;;;;;;;;20.20;86.70;;;;;;6095632;23;19997;-79
2022/06/30 04:03:31;;;;;;;;;;;20.20;87.10;;;;;;6096189;23;19921;-80
2022/06/30 04:05:58;;;;;;;;;;;20.20;86.90;;;;;;6095610;23;19977;-79
2022/06/30 04:08:25;;;;;;;;;;;20.20;86.90;;;;;;6096325;23;19933;-80
2022/06/30 04:10:52;;;;;;;;;;;20.20;86.90;;;;;;6096660;23;19988;-79
2022/06/30 04:13:19;;;;;;;;;;;20.20;87.20;;;;;;6096373;23;19921;-80
2022/06/30 04:15:45;;;;;;;;;;;20.20;87.20;;;;;;6094218;23;19926;-79
2022/06/30 04:18:12;;;;;;;;;;;20.30;87.40;;;;;;6096021;23;19925;-80
2022/06/30 04:20:39;;;;;;;;;;;20.20;88.00;;;;;;6096086;23;19925;-80
2022/06/30 04:23:06;;;;;;;;;;;20.20;87.40;;;;;;6095152;23;19945;-79
2022/06/30 04:25:34;;;;;;;;;;;20.20;87.20;;;;;;6094962;23;19921;-80
2022/06/30 04:28:00;;;;;;;;;;;20.20;87.10;;;;;;6095394;23;19925;-80
2022/06/30 04:33:13;;;;;;;;;;;20.30;86.80;;;;;;6101008;23;19975;-80
2022/06/30 04:35:40;;;;;;;;;;;20.40;86.50;;;;;;6124757;23;19921;-79
2022/06/30 04:38:07;;;;;;;;;;;20.40;86.60;;;;;;6124562;23;19976;-80
2022/06/30 04:43:19;;;;;;;;;;;20.50;86.60;;;;;;6124763;23;19925;-80
2022/06/30 04:45:46;;;;;;;;;;;20.60;87.10;;;;;;6124888;23;20239;-80
2022/06/30 04:48:13;;;;;;;;;;;20.60;86.70;;;;;;6095649;23;20309;-80
2022/06/30 04:50:40;;;;;;;;;;;20.70;86.30;;;;;;6071963;23;19972;-79
2022/06/30 04:53:06;;;;;;;;;;;20.70;85.50;;;;;;6096047;23;19992;-80
2022/06/30 04:55:33;;;;;;;;;;;20.80;85.30;;;;;;6095287;23;20335;-80
2022/06/30 04:58:00;;;;;;;;;;;20.80;85.10;;;;;;6093997;23;19922;-80
2022/06/30 05:00:27;;;;;;;;;;;20.90;84.60;;;;;;6095920;23;19984;-80
2022/06/30 05:02:54;;;;;;;;;;;21.00;83.90;;;;;;6094343;23;19944;-80
2022/06/30 05:05:21;;;;;;;;;;;21.00;83.10;;;;;;6123227;23;19920;-80
2022/06/30 05:07:47;;;;;;;;;;;21.10;81.50;;;;;;6112374;23;19925;-80
2022/06/30 05:10:14;;;;;;;;;;;21.20;80.40;;;;;;6097419;23;19948;-80
2022/06/30 05:12:41;;;;;;;;;;;21.20;79.70;;;;;;6114423;23;19929;-80
2022/06/30 05:15:08;;;;;;;;;;;21.30;78.70;;;;;;6121283;23;19921;-80
2022/06/30 05:17:35;;;;;;;;;;;21.40;78.60;;;;;;6117325;23;19977;-80
2022/06/30 05:20:02;;;;;;;;;;;21.50;77.80;;;;;;6094684;23;20350;-79
2022/06/30 05:22:29;;;;;;;;;;;21.50;77.40;;;;;;6099385;23;19949;-79
2022/06/30 05:27:46;;;;;;;;;;;21.70;77.50;;;;;;6123882;23;19952;-80
2022/06/30 05:30:13;;;;;;;;;;;21.80;77.50;;;;;;6111936;23;20012;-79
2022/06/30 05:32:40;;;;;;;;;;;21.80;77.70;;;;;;6096437;23;19956;-79
2022/06/30 05:35:07;;;;;;;;;;;21.90;77.70;;;;;;6113691;23;19945;-79
2022/06/30 05:37:34;;;;;;;;;;;22.00;77.90;;;;;;6097272;23;19925;-78
2022/06/30 05:40:01;;;;;;;;;;;22.10;77.00;;;;;;6114376;23;19928;-79
2022/06/30 05:42:29;;;;;;;;;;;22.10;76.40;;;;;;6096410;23;20234;-79
2022/06/30 05:44:55;;;;;;;;;;;22.20;75.10;;;;;;6114507;23;19980;-78
2022/06/30 05:47:22;;;;;;;;;;;22.20;75.00;;;;;;6119864;23;19921;-79
2022/06/30 05:49:49;;;;;;;;;;;22.30;74.00;;;;;;6116786;23;19929;-81
2022/06/30 05:52:16;;;;;;;;;;;22.30;73.20;;;;;;6093394;23;19928;-79
2022/06/30 05:54:42;;;;;;;;;;;22.40;72.90;;;;;;6081441;23;19925;-79
2022/06/30 05:57:09;;;;;;;;;;;22.50;72.60;;;;;;6071102;23;19925;-80
2022/06/30 05:59:36;;;;;;;;;;;22.60;72.20;;;;;;6092762;23;19929;-80
2022/06/30 06:02:03;;;;;;;;;;;22.70;72.40;;;;;;6093822;23;20048;-81
2022/06/30 06:04:30;;;;;;;;;;;22.70;72.00;;;;;;6093323;23;19921;-79
2022/06/30 06:06:57;;;;;;;;;;;22.70;71.90;;;;;;6094301;23;20028;-80
2022/06/30 06:09:24;;;;;;;;;;;22.80;72.50;;;;;;6095143;23;19944;-79
2022/06/30 06:11:51;;;;;;;;;;;22.80;72.60;;;;;;6071454;23;20015;-80
2022/06/30 06:14:19;;;;;;;;;;;22.80;72.70;;;;;;6094711;23;19972;-80
2022/06/30 06:16:47;;;;;;;;;;;22.90;73.20;;;;;;6123570;23;19928;-81
2022/06/30 06:19:14;;;;;;;;;;;22.90;73.60;;;;;;6113338;23;19925;-80
2022/06/30 06:21:46;;;;;;;;;;;23.00;73.90;;;;;;6099110;23;19970;-80
2022/06/30 06:24:12;;;;;;;;;;;23.00;73.50;;;;;;6114027;23;19932;-79
2022/06/30 06:26:39;;;;;;;;;;;23.00;73.40;;;;;;6096954;23;19925;-79
2022/06/30 06:29:06;;;;;;;;;;;23.10;73.30;;;;;;6115072;23;19921;-81
2022/06/30 06:31:33;;;;;;;;;;;23.10;73.40;;;;;;6095762;23;19938;-81
2022/06/30 06:34:01;;;;;;;;;;;23.20;72.90;;;;;;6125895;23;19975;-80
2022/06/30 06:36:28;;;;;;;;;;;23.20;71.60;;;;;;6124114;23;19976;-81
2022/06/30 06:38:55;;;;;;;;;;;23.30;71.80;;;;;;6117578;23;19928;-81
2022/06/30 06:41:21;;;;;;;;;;;23.30;71.30;;;;;;6094009;23;20294;-80
2022/06/30 06:43:49;;;;;;;;;;;23.40;71.30;;;;;;6087333;23;19967;-80
2022/06/30 06:46:16;;;;;;;;;;;23.40;71.20;;;;;;6113268;23;20258;-80
2022/06/30 06:48:43;;;;;;;;;;;23.50;70.80;;;;;;6097409;23;19947;-79
2022/06/30 06:51:10;;;;;;;;;;;23.50;71.20;;;;;;6124964;23;20014;-81
2022/06/30 06:53:37;;;;;;;;;;;23.60;71.20;;;;;;6110410;23;19921;-80
2022/06/30 06:56:04;;;;;;;;;;;23.80;70.90;;;;;;6116484;23;19921;-80
2022/06/30 06:58:31;;;;;;;;;;;23.90;69.70;;;;;;6094925;23;19921;-80
2022/06/30 07:00:58;;;;;;;;;;;24.00;69.20;;;;;;6116992;23;20339;-80
2022/06/30 07:03:25;;;;;;;;;;;24.10;68.80;;;;;;6094333;23;19971;-81
2022/06/30 07:05:51;;;;;;;;;;;24.20;67.50;;;;;;6118156;23;19921;-80
2022/06/30 07:08:18;;;;;;;;;;;24.30;67.20;;;;;;6093543;23;19925;-80
2022/06/30 07:10:45;;;;;;;;;;;24.40;67.30;;;;;;6074925;23;20377;-80
2022/06/30 07:13:12;;;;;;;;;;;24.50;67.20;;;;;;6125003;23;19925;-81
2022/06/30 07:15:38;;;;;;;;;;;24.50;66.40;;;;;;6109614;23;20401;-81
2022/06/30 07:18:05;;;;;;;;;;;24.50;66.50;;;;;;6115579;23;19949;-81
2022/06/30 07:20:32;;;;;;;;;;;24.60;66.70;;;;;;6094809;23;19921;-80
2022/06/30 07:22:59;;;;;;;;;;;24.60;65.40;;;;;;6116550;23;20377;-81
2022/06/30 07:25:46;;;;;;;;;;;24.60;65.40;;;;;;6085463;23;19992;-80
2022/06/30 07:28:12;;;;;;;;;;;24.70;64.60;;;;;;6069982;23;19984;-80
2022/06/30 07:30:59;;;;;;;;;;;24.80;64.70;;;;;;6074147;23;20000;-81
2022/06/30 07:33:26;;;;;;;;;;;24.90;65.00;;;;;;6094614;23;19921;-80
2022/06/30 07:35:53;;;;;;;;;;;25.00;65.40;;;;;;6093604;23;19949;-80
2022/06/30 07:38:19;;;;;;;;;;;25.20;65.00;;;;;;6093868;23;19925;-81
2022/06/30 07:40:46;;;;;;;;;;;25.40;64.00;;;;;;6093666;23;19921;-79
2022/06/30 07:43:13;;;;;;;;;;;25.70;62.80;;;;;;6094566;23;19929;-81
2022/06/30 07:45:40;;;;;;;;;;;25.90;61.50;;;;;;6093235;23;20355;-80
2022/06/30 07:48:06;;;;;;;;;;;25.90;61.20;;;;;;6094731;23;19961;-81
2022/06/30 07:50:33;;;;;;;;;;;26.00;60.90;;;;;;6093385;23;19922;-81
2022/06/30 07:53:00;;;;;;;;;;;26.10;60.30;;;;;;6094943;23;20015;-81
2022/06/30 07:55:27;;;;;;;;;;;26.20;61.20;;;;;;6094297;23;19976;-81
2022/06/30 07:57:53;;;;;;;;;;;26.40;60.10;;;;;;6094592;23;20279;-81
2022/06/30 08:00:24;;;;;;;;;;;26.50;60.50;;;;;;6070315;23;19921;-82
2022/06/30 08:02:51;;;;;;;;;;;26.60;59.50;;;;;;6091998;23;19996;-81
2022/06/30 08:05:18;;;;;;;;;;;26.70;59.10;;;;;;6093793;23;19921;-81
2022/06/30 08:07:45;;;;;;;;;;;26.90;59.30;;;;;;6092617;23;20334;-80
2022/06/30 08:10:11;;;;;;;;;;;27.00;58.70;;;;;;6095470;23;19925;-81
2022/06/30 08:12:38;;;;;;;;;;;27.10;58.30;;;;;;6093341;23;19972;-80
2022/06/30 08:15:05;;;;;;;;;;;27.20;58.50;;;;;;6070009;23;19927;-81
2022/06/30 08:17:32;;;;;;;;;;;27.20;58.50;;;;;;6094057;23;19922;-81
2022/06/30 08:19:59;;;;;;;;;;;27.40;58.40;;;;;;6068014;23;20421;-81
2022/06/30 08:22:26;;;;;;;;;;;27.50;57.20;;;;;;6095100;23;19925;-81
2022/06/30 08:24:55;;;;;;;;;;;27.70;56.10;;;;;;6069017;23;20299;-81
2022/06/30 08:27:22;;;;;;;;;;;27.70;55.90;;;;;;6071449;23;19921;-80
2022/06/30 08:29:48;;;;;;;;;;;27.80;55.40;;;;;;6095776;23;19977;-81
2022/06/30 08:32:15;;;;;;;;;;;27.80;55.50;;;;;;6095757;23;19925;-81
2022/06/30 08:34:42;;;;;;;;;;;27.90;55.90;;;;;;6094162;23;19921;-81
2022/06/30 08:37:09;;;;;;;;;;;27.90;56.20;;;;;;6095653;23;19925;-81
2022/06/30 08:42:22;;;;;;;;;;;28.10;54.40;;;;;;6124516;23;19925;-80
2022/06/30 08:45:13;;;;;;;;;;;28.20;54.10;;;;;;6112868;23;19925;-81
2022/06/30 08:47:36;;;;;;;;;;;28.20;54.30;;;;;;6124414;23;20377;-81
2022/06/30 08:50:04;;;;;;;;;;;28.20;54.30;;;;;;6113620;23;19928;-81
2022/06/30 08:52:32;;;;;;;;;;;28.10;54.50;;;;;;6081915;23;20012;-81
2022/06/30 08:55:00;;;;;;;;;;;28.00;54.70;;;;;;6070916;23;19925;-81
2022/06/30 08:57:29;;;;;;;;;;;28.00;55.10;;;;;;6097220;23;19921;-80
2022/06/30 08:59:56;;;;;;;;;;;28.00;55.00;;;;;;6102219;23;19995;-81
2022/06/30 09:02:23;;;;;;;;;;;28.10;54.90;;;;;;6107967;23;19921;-81
2022/06/30 09:04:50;;;;;;;;;;;28.30;54.50;;;;;;6103942;23;19926;-81
2022/06/30 09:07:16;;;;;;;;;;;28.40;53.60;;;;;;6106674;23;20298;-81
2022/06/30 09:09:43;;;;;;;;;;;28.40;53.60;;;;;;6104716;23;19976;-81
2022/06/30 09:12:14;;;;;;;;;;;28.50;53.70;;;;;;6106444;23;19928;-80
2022/06/30 09:14:42;;;;;;;;;;;28.50;54.50;;;;;;6093554;23;19973;-80
2022/06/30 09:17:19;;;;;;;;;;;28.70;54.10;;;;;;6093933;23;19972;-80
2022/06/30 09:19:52;;;;;;;;;;;28.80;54.80;;;;;;6123448;23;20231;-80
2022/06/30 09:22:21;;;;;;;;;;;28.90;55.00;;;;;;6111866;23;19925;-81
2022/06/30 09:25:01;;;;;;;;;;;29.00;54.30;;;;;;6112132;23;19920;-80
2022/06/30 09:27:29;;;;;;;;;;;29.20;53.20;;;;;;6110375;23;20106;-79
2022/06/30 09:30:00;;;;;;;;;;;29.20;53.40;;;;;;6116650;23;19981;-80
2022/06/30 09:32:45;;;;;;;;;;;29.40;53.60;;;;;;6123462;23;19922;-80
2022/06/30 09:35:12;;;;;;;;;;;29.60;53.30;;;;;;6099299;23;19979;-81
2022/06/30 09:37:39;;;;;;;;;;;29.70;53.50;;;;;;6109566;23;19925;-80
2022/06/30 09:40:07;;;;;;;;;;;29.80;53.30;;;;;;6115048;23;19981;-81
2022/06/30 09:42:38;;;;;;;;;;;30.00;51.70;;;;;;6096217;23;19925;-80
2022/06/30 09:45:33;;;;;;;;;;;30.20;51.50;;;;;;6112213;23;20549;-81
2022/06/30 09:48:00;;;;;;;;;;;30.40;51.00;;;;;;6069705;23;19927;-81
2022/06/30 09:50:27;;;;;;;;;;;30.50;50.70;;;;;;6095018;23;20291;-80
2022/06/30 09:53:02;;;;;;;;;;;30.70;51.20;;;;;;6094366;23;19921;-80
2022/06/30 09:55:39;;;;;;;;;;;30.90;52.20;;;;;;6119461;23;19925;-80
2022/06/30 09:58:06;;;;;;;;;;;31.20;50.80;;;;;;6124652;23;20352;-80
2022/06/30 10:00:46;;;;;;;;;;;31.20;49.50;;;;;;6098709;23;19921;-80
2022/06/30 10:03:16;;;;;;;;;;;31.00;48.10;;;;;;6093560;23;20328;-80
2022/06/30 10:06:02;;;;;;;;;;;30.80;50.70;;;;;;6093593;23;19925;-80
2022/06/30 10:08:29;;;;;;;;;;;30.80;51.40;;;;;;6122697;23;20023;-80
2022/06/30 10:10:56;;;;;;;;;;;30.90;50.30;;;;;;6099440;23;19976;-80
2022/06/30 10:13:23;;;;;;;;;;;30.90;51.10;;;;;;6110223;23;20243;-80
2022/06/30 10:15:53;;;;;;;;;;;31.00;51.70;;;;;;6099214;23;20258;-80
2022/06/30 10:18:30;;;;;;;;;;;31.20;50.10;;;;;;6110191;23;20015;-81
2022/06/30 10:20:58;;;;;;;;;;;31.40;51.10;;;;;;6099078;23;20342;-80
2022/06/30 10:23:25;;;;;;;;;;;31.60;50.80;;;;;;6094715;23;20343;-81
2022/06/30 10:25:52;;;;;;;;;;;31.80;51.30;;;;;;6094627;23;20346;-80
2022/06/30 10:28:20;;;;;;;;;;;32.10;51.10;;;;;;6068883;23;20398;-80
2022/06/30 10:30:53;;;;;;;;;;;32.40;49.30;;;;;;6095063;23;19926;-80
2022/06/30 10:33:35;;;;;;;;;;;32.50;48.60;;;;;;6093039;23;19994;-81
2022/06/30 10:36:11;;;;;;;;;;;32.70;48.50;;;;;;6118093;23;19981;-80
2022/06/30 10:38:41;;;;;;;;;;;33.00;48.90;;;;;;6111795;23;19980;-81
2022/06/30 10:41:10;;;;;;;;;;;33.10;46.90;;;;;;6124008;23;20342;-80
2022/06/30 10:43:56;;;;;;;;;;;32.90;45.90;;;;;;6110155;23;19952;-80
2022/06/30 10:46:22;;;;;;;;;;;32.60;45.90;;;;;;6097468;23;20302;-80
2022/06/30 10:48:53;;;;;;;;;;;32.70;47.40;;;;;;6115584;23;20358;-80
2022/06/30 10:51:20;;;;;;;;;;;32.70;46.80;;;;;;6093949;23;20227;-80
2022/06/30 10:53:49;;;;;;;;;;;32.60;46.30;;;;;;6116525;23;19922;-80
2022/06/30 10:56:17;;;;;;;;;;;32.30;46.40;;;;;;6092826;23;20130;-80
2022/06/30 10:59:02;;;;;;;;;;;32.00;46.00;;;;;;6116552;23;19921;-80
2022/06/30 11:01:29;;;;;;;;;;;31.70;46.40;;;;;;6120484;23;20042;-80
2022/06/30 11:03:56;;;;;;;;;;;31.50;47.00;;;;;;6097811;23;20266;-82
2022/06/30 11:06:26;;;;;;;;;;;31.30;47.00;;;;;;6109670;23;19925;-81
2022/06/30 11:09:00;;;;;;;;;;;31.20;47.50;;;;;;6115168;23;20000;-81
2022/06/30 11:11:28;;;;;;;;;;;30.90;47.80;;;;;;6080951;23;19969;-81
2022/06/30 11:13:55;;;;;;;;;;;30.60;49.10;;;;;;6070044;23;19985;-82
2022/06/30 11:16:23;;;;;;;;;;;30.40;49.90;;;;;;6090294;23;19928;-81
2022/06/30 11:18:50;;;;;;;;;;;30.30;50.10;;;;;;6125164;23;19925;-81
2022/06/30 11:21:17;;;;;;;;;;;30.20;50.30;;;;;;6097690;23;19979;-81
2022/06/30 11:23:45;;;;;;;;;;;30.10;50.70;;;;;;6116846;23;20303;-82
2022/06/30 11:29:11;;;;;;;;;;;30.10;50.10;;;;;;6124274;23;20556;-81
2022/06/30 11:31:40;;;;;;;;;;;30.00;49.00;;;;;;6110459;23;19925;-81
2022/06/30 11:34:07;;;;;;;;;;;30.00;49.50;;;;;;6112239;23;20290;-81
2022/06/30 11:36:35;;;;;;;;;;;30.00;50.00;;;;;;6094767;23;20258;-81
2022/06/30 11:39:06;;;;;;;;;;;30.00;49.70;;;;;;6114178;23;19921;-81
2022/06/30 11:44:21;;;;;;;;;;;30.10;49.60;;;;;;6124137;23;20013;-81
2022/06/30 11:46:51;;;;;;;;;;;30.20;51.20;;;;;;6115376;23;20342;-81
2022/06/30 11:49:19;;;;;;;;;;;30.30;49.60;;;;;;6088114;23;20433;-81
2022/06/30 11:51:47;;;;;;;;;;;30.30;46.80;;;;;;6116350;23;19972;-81
2022/06/30 11:54:14;;;;;;;;;;;30.30;49.20;;;;;;6093088;23;19921;-81
2022/06/30 11:56:49;;;;;;;;;;;30.40;48.60;;;;;;6110446;23;19924;-81
2022/06/30 11:59:16;;;;;;;;;;;30.60;48.60;;;;;;6112079;23;19921;-81
2022/06/30 12:02:13;;;;;;;;;;;30.80;47.50;;;;;;6099170;23;19920;-81
2022/06/30 12:04:43;;;;;;;;;;;30.80;47.50;;;;;;6069796;23;19929;-81
2022/06/30 12:07:11;;;;;;;;;;;31.00;48.10;;;;;;6114015;23;19925;-81
2022/06/30 12:09:38;;;;;;;;;;;31.10;49.50;;;;;;6098576;23;19921;-81
2022/06/30 12:12:05;;;;;;;;;;;31.20;50.00;;;;;;6111259;23;19968;-81
2022/06/30 12:14:34;;;;;;;;;;;31.20;49.90;;;;;;6121257;23;19920;-81
2022/06/30 12:17:00;;;;;;;;;;;31.20;49.80;;;;;;6114836;23;19921;-81
2022/06/30 12:19:27;;;;;;;;;;;31.10;49.50;;;;;;6094215;23;19925;-81
2022/06/30 12:21:54;;;;;;;;;;;31.20;49.70;;;;;;6115884;23;20005;-81
2022/06/30 12:24:23;;;;;;;;;;;31.30;49.60;;;;;;6093285;23;19921;-81
2022/06/30 12:26:55;;;;;;;;;;;31.60;49.30;;;;;;6117054;23;19928;-81
2022/06/30 12:29:23;;;;;;;;;;;31.80;48.80;;;;;;6093537;23;19973;-81
2022/06/30 12:32:07;;;;;;;;;;;32.10;47.70;;;;;;6117043;23;19925;-81
2022/06/30 12:34:47;;;;;;;;;;;32.20;46.90;;;;;;6121854;23;19971;-81
2022/06/30 12:37:14;;;;;;;;;;;32.10;46.30;;;;;;6113111;23;19925;-81
2022/06/30 12:39:44;;;;;;;;;;;32.30;46.90;;;;;;6098280;23;19933;-81
2022/06/30 12:42:11;;;;;;;;;;;32.60;47.20;;;;;;6114143;23;19922;-81
2022/06/30 12:44:38;;;;;;;;;;;32.70;46.50;;;;;;6097915;23;19948;-81
2022/06/30 12:47:07;;;;;;;;;;;32.70;46.10;;;;;;6099785;23;20254;-81
2022/06/30 12:49:34;;;;;;;;;;;32.70;46.50;;;;;;6095584;23;19925;-81
2022/06/30 12:52:11;;;;;;;;;;;32.90;47.00;;;;;;6093783;23;19921;-82
2022/06/30 12:54:48;;;;;;;;;;;32.90;46.70;;;;;;6092952;23;19921;-82
2022/06/30 12:57:15;;;;;;;;;;;32.90;45.40;;;;;;6093911;23;19972;-81
2022/06/30 12:59:45;;;;;;;;;;;32.80;44.60;;;;;;6093036;23;20346;-81
2022/06/30 13:02:16;;;;;;;;;;;32.60;45.00;;;;;;6070407;23;19922;-81
2022/06/30 13:04:50;;;;;;;;;;;32.40;45.60;;;;;;6093783;23;20266;-81
2022/06/30 13:07:21;;;;;;;;;;;32.20;45.30;;;;;;6095051;23;20354;-80
2022/06/30 13:09:49;;;;;;;;;;;32.10;45.70;;;;;;6122561;23;19925;-81
2022/06/30 13:12:16;;;;;;;;;;;31.80;45.40;;;;;;6113913;23;19960;-81
2022/06/30 13:14:43;;;;;;;;;;;31.70;46.00;;;;;;6098657;23;19929;-81
2022/06/30 13:17:11;;;;;;;;;;;31.60;46.90;;;;;;6100403;23;20265;-81
2022/06/30 13:19:38;;;;;;;;;;;31.50;47.50;;;;;;6111788;23;19929;-81
2022/06/30 13:22:05;;;;;;;;;;;31.40;47.90;;;;;;6116247;23;19968;-81
2022/06/30 13:24:33;;;;;;;;;;;31.40;48.30;;;;;;6096334;23;19921;-81
2022/06/30 13:27:03;;;;;;;;;;;31.40;47.80;;;;;;6117659;23;20236;-81
2022/06/30 13:29:30;;;;;;;;;;;31.40;47.20;;;;;;6094904;23;19950;-82
2022/06/30 13:31:58;;;;;;;;;;;31.50;47.00;;;;;;6124925;23;20338;-81
2022/06/30 13:34:25;;;;;;;;;;;31.60;46.60;;;;;;6124338;23;19996;-82
2022/06/30 13:36:53;;;;;;;;;;;31.80;47.20;;;;;;6117848;23;20350;-81
2022/06/30 13:39:20;;;;;;;;;;;32.00;47.50;;;;;;6093646;23;19921;-81
2022/06/30 13:41:47;;;;;;;;;;;31.90;45.60;;;;;;6074856;23;20409;-80
2022/06/30 13:44:15;;;;;;;;;;;31.70;46.10;;;;;;6113733;23;19968;-81
2022/06/30 13:46:42;;;;;;;;;;;31.50;45.00;;;;;;6096628;23;19968;-81
2022/06/30 13:49:09;;;;;;;;;;;31.30;46.00;;;;;;6114471;23;19925;-81
2022/06/30 13:51:41;;;;;;;;;;;31.00;47.30;;;;;;6098702;23;19920;-80
2022/06/30 13:54:08;;;;;;;;;;;30.80;47.80;;;;;;6115993;23;19925;-80
2022/06/30 13:56:35;;;;;;;;;;;30.60;47.90;;;;;;6121540;23;19972;-81
2022/06/30 13:59:03;;;;;;;;;;;30.50;48.90;;;;;;6125707;23;19971;-81
2022/06/30 14:01:30;;;;;;;;;;;30.50;48.60;;;;;;6097789;23;19925;-81
2022/06/30 14:03:56;;;;;;;;;;;30.50;48.70;;;;;;6107293;23;20394;-81
2022/06/30 14:06:23;;;;;;;;;;;30.50;48.90;;;;;;6094341;23;19925;-81
2022/06/30 14:08:50;;;;;;;;;;;30.50;49.10;;;;;;6074438;23;19925;-81
2022/06/30 14:11:17;;;;;;;;;;;30.60;49.10;;;;;;6112638;23;19925;-81
